createdAt,value
2023-03-03T06:06:25.691Z,74.65
2023-03-03T06:09:03.288Z,59.15
2023-03-03T06:11:32.632Z,78.75
2023-03-03T06:14:00.372Z,67.82
2023-03-03T06:16:27.313Z,80.32
2023-03-03T06:18:54.817Z,68.47
2023-03-03T06:21:39.298Z,67.85
2023-03-03T06:24:12.913Z,69.90
2023-03-03T06:26:43.220Z,67.30
2023-03-03T06:29:19.422Z,67.38
2023-03-03T06:31:47.191Z,61.28
2023-03-03T06:34:49.730Z,71.57
2023-03-03T06:37:29.135Z,67.72
2023-03-03T06:40:21.632Z,61.35
2023-03-03T06:42:51.703Z,66.93
2023-03-03T06:45:20.220Z,63.97
2023-03-03T06:47:47.361Z,60.08
2023-03-03T06:50:21.249Z,62.47
2023-03-03T06:52:48.511Z,62.30
2023-03-03T06:55:24.658Z,62.30
2023-03-03T06:58:12.274Z,65.00
2023-03-03T07:00:48.056Z,73.45
2023-03-03T07:03:32.558Z,65.28
2023-03-03T07:06:43.947Z,55.63
2023-03-03T07:09:21.914Z,55.13
2023-03-03T07:11:48.561Z,61.90
2023-03-03T07:14:19.187Z,59.33
2023-03-03T07:16:46.346Z,60.65
2023-03-03T07:19:33.276Z,61.85
2023-03-03T07:22:12.562Z,71.18
2023-03-03T07:27:11.823Z,69.03
2023-03-03T07:29:41.594Z,65.45
2023-03-03T07:32:22.802Z,69.63
2023-03-03T07:34:53.751Z,55.30
2023-03-03T07:37:34.935Z,75.97
2023-03-03T07:40:27.315Z,70.80
2023-03-03T07:42:54.078Z,73.43
2023-03-03T07:45:36.920Z,71.95
2023-03-03T07:48:25.234Z,67.63
2023-03-03T07:50:52.337Z,70.93
2023-03-03T07:53:35.094Z,64.70
2023-03-03T07:56:02.297Z,67.88
2023-03-03T07:58:40.730Z,61.92
2023-03-03T08:01:28.192Z,51.65
2023-03-03T08:03:56.716Z,62.00
2023-03-03T08:06:35.530Z,62.75
2023-03-03T08:09:11.535Z,66.15
2023-03-03T08:11:49.831Z,57.63
2023-03-03T08:14:26.427Z,57.70
2023-03-03T08:16:53.277Z,69.65
2023-03-03T08:19:20.125Z,62.65
2023-03-03T08:21:46.824Z,57.45
2023-03-03T08:24:13.646Z,56.25
2023-03-03T08:26:40.414Z,61.38
2023-03-03T08:29:07.303Z,66.72
2023-03-03T08:31:41.226Z,52.95
2023-03-03T08:34:09.303Z,49.00
2023-03-03T08:36:35.838Z,48.17
2023-03-03T08:39:04.910Z,47.90
2023-03-03T08:41:31.560Z,60.45
2023-03-03T08:43:58.343Z,48.85
2023-03-03T08:46:25.022Z,48.45
2023-03-03T08:48:53.033Z,41.42
2023-03-03T08:51:19.830Z,56.03
2023-03-03T08:53:47.253Z,45.38
2023-03-03T08:56:15.168Z,43.20
2023-03-03T08:59:03.200Z,40.45
2023-03-03T09:01:32.519Z,48.17
2023-03-03T09:03:59.930Z,42.90
2023-03-03T09:06:26.615Z,41.80
2023-03-03T09:08:55.098Z,46.40
2023-03-03T09:11:27.592Z,42.22
2023-03-03T09:14:02.863Z,45.75
2023-03-03T09:16:37.192Z,42.38
2023-03-03T09:19:19.945Z,46.80
2023-03-03T09:21:46.759Z,41.70
2023-03-03T09:24:27.956Z,45.10
2023-03-03T09:26:55.520Z,48.53
2023-03-03T09:29:30.911Z,49.83
2023-03-03T09:32:01.019Z,45.50
2023-03-03T09:34:41.641Z,46.25
2023-03-03T09:37:23.515Z,48.25
2023-03-03T09:39:56.698Z,44.65
2023-03-03T09:42:38.850Z,51.13
2023-03-03T09:45:36.190Z,47.55
2023-03-03T09:48:48.298Z,45.85
2023-03-03T09:51:33.501Z,42.28
2023-03-03T09:54:12.625Z,40.05
2023-03-03T09:56:44.576Z,43.25
2023-03-03T09:59:39.272Z,42.22
2023-03-03T10:02:24.101Z,47.53
2023-03-03T10:05:05.774Z,37.78
2023-03-03T10:07:47.533Z,37.40
2023-03-03T10:10:36.569Z,48.22
2023-03-03T10:13:13.495Z,46.77
2023-03-03T10:16:04.103Z,41.85
2023-03-03T10:18:37.419Z,38.95
2023-03-03T10:21:11.794Z,43.50
2023-03-03T10:24:05.072Z,43.85
2023-03-03T10:27:12.650Z,39.35
2023-03-03T10:30:08.333Z,41.65
2023-03-03T10:32:49.481Z,45.42
2023-03-03T10:36:07.304Z,40.15
2023-03-03T10:38:58.725Z,33.53
2023-03-03T10:41:31.337Z,36.13
2023-03-03T10:44:03.184Z,39.30
2023-03-03T10:46:46.249Z,39.20
2023-03-03T10:49:43.728Z,40.05
2023-03-03T10:52:20.014Z,37.20
2023-03-03T10:55:12.015Z,36.63
2023-03-03T10:58:03.133Z,42.60
2023-03-03T11:00:42.413Z,39.78
2023-03-03T11:03:33.330Z,48.50
2023-03-03T11:06:05.481Z,44.25
2023-03-03T11:08:46.089Z,48.03
2023-03-03T11:11:41.517Z,42.05
2023-03-03T11:14:27.697Z,52.83
2023-03-03T11:17:21.736Z,52.33
2023-03-03T11:20:07.076Z,52.15
2023-03-03T11:23:16.942Z,51.35
2023-03-03T11:25:55.977Z,49.50
2023-03-03T11:28:45.663Z,48.10
2023-03-03T11:31:21.328Z,51.58
2023-03-03T11:34:05.316Z,52.08
2023-03-03T11:36:58.011Z,48.83
2023-03-03T11:39:27.617Z,52.50
2023-03-03T11:42:07.106Z,51.65
2023-03-03T11:44:40.746Z,57.25
2023-03-03T11:47:42.520Z,47.53
2023-03-03T11:50:21.129Z,47.92
2023-03-03T11:53:12.769Z,48.65
2023-03-03T11:55:43.118Z,51.22
2023-03-03T11:58:34.665Z,53.55
2023-03-03T12:01:30.353Z,43.70
2023-03-03T12:04:01.761Z,47.60
2023-03-03T12:06:44.118Z,51.35
2023-03-03T12:09:42.947Z,41.88
2023-03-03T12:12:19.544Z,46.92
2023-03-03T12:15:09.250Z,44.83
2023-03-03T12:20:26.019Z,41.35
2023-03-03T12:26:11.759Z,42.22
2023-03-03T12:28:42.304Z,46.25
2023-03-03T12:31:55.853Z,42.30
2023-03-03T12:35:00.900Z,39.20
2023-03-03T12:37:55.419Z,43.45
2023-03-03T12:40:31.130Z,44.95
2023-03-03T12:43:10.791Z,45.92
2023-03-03T12:45:53.765Z,58.33
2023-03-03T12:48:29.189Z,53.05
2023-03-03T12:51:01.123Z,43.17
2023-03-03T12:53:30.538Z,46.92
2023-03-03T12:58:52.572Z,47.83
2023-03-03T13:01:41.314Z,43.65
2023-03-03T13:04:52.821Z,42.97
2023-03-03T13:07:35.396Z,45.85
2023-03-03T13:10:26.346Z,48.05
2023-03-03T13:13:07.118Z,50.33
2023-03-03T13:15:55.247Z,48.47
2023-03-03T13:18:47.420Z,47.33
2023-03-03T13:21:32.282Z,47.17
2023-03-03T13:24:33.165Z,50.90
2023-03-03T13:27:15.289Z,48.40
2023-03-03T13:30:00.200Z,45.78
2023-03-03T13:32:41.036Z,40.70
2023-03-03T13:35:16.699Z,44.17
2023-03-03T13:37:50.371Z,50.80
2023-03-03T13:40:22.517Z,48.38
2023-03-03T13:43:13.846Z,52.53
2023-03-03T13:46:05.675Z,51.05
2023-03-03T13:48:40.252Z,48.85
2023-03-03T13:51:43.345Z,52.45
2023-03-03T13:54:13.114Z,48.75
2023-03-03T13:56:54.633Z,47.95
2023-03-03T13:59:29.493Z,52.88
2023-03-03T14:01:59.450Z,47.30
2023-03-03T14:07:18.368Z,46.60
2023-03-03T14:09:56.868Z,47.50
2023-03-03T14:12:34.680Z,47.70
2023-03-03T14:15:53.811Z,41.28
2023-03-03T14:18:34.752Z,41.45
2023-03-03T14:21:14.417Z,40.42
2023-03-03T14:24:07.821Z,36.85
2023-03-03T14:26:49.985Z,40.88
2023-03-03T14:29:30.776Z,35.88
2023-03-03T14:32:30.492Z,40.88
2023-03-03T14:35:22.151Z,39.85
2023-03-03T14:37:50.989Z,40.10
2023-03-03T14:40:32.919Z,34.10
2023-03-03T14:43:02.416Z,40.13
2023-03-03T14:45:41.287Z,38.45
2023-03-03T14:48:22.101Z,36.17
2023-03-03T14:50:52.760Z,35.95
2023-03-03T14:53:19.969Z,35.97
2023-03-03T14:55:52.177Z,32.47
2023-03-03T14:58:40.874Z,30.88
2023-03-03T15:01:36.303Z,37.70
2023-03-03T15:04:15.831Z,31.48
2023-03-03T15:06:44.224Z,33.30
2023-03-03T15:09:43.461Z,33.05
2023-03-03T15:12:37.487Z,27.70
2023-03-03T15:15:04.443Z,33.83
2023-03-03T15:17:44.485Z,33.95
2023-03-03T15:20:35.729Z,36.63
2023-03-03T15:23:18.696Z,37.92
2023-03-03T15:26:02.276Z,28.40
2023-03-03T15:28:46.218Z,33.45
2023-03-03T15:31:41.543Z,26.70
2023-03-03T15:34:26.458Z,27.45
2023-03-03T15:37:16.592Z,27.15
2023-03-03T15:40:10.584Z,29.45
2023-03-03T15:42:47.558Z,28.02
2023-03-03T15:45:20.037Z,27.23
2023-03-03T15:48:34.994Z,35.00
2023-03-03T15:51:31.089Z,25.92
2023-03-03T15:54:19.181Z,26.02
2023-03-03T15:56:51.387Z,28.80
2023-03-03T15:59:47.140Z,28.38
2023-03-03T16:02:49.533Z,24.33
2023-03-03T16:05:19.457Z,23.17
2023-03-03T16:08:19.692Z,25.25
2023-03-03T16:11:07.964Z,26.55
2023-03-03T16:13:40.994Z,25.13
2023-03-03T16:16:19.343Z,28.17
2023-03-03T16:19:08.049Z,23.27
2023-03-03T16:21:59.098Z,24.55
2023-03-03T16:24:58.400Z,26.67
2023-03-03T16:27:34.555Z,22.05
2023-03-03T16:30:26.862Z,27.73
2023-03-03T16:33:07.198Z,25.63
2023-03-03T16:35:39.809Z,26.02
2023-03-03T16:38:17.225Z,27.77
2023-03-03T16:40:55.500Z,32.88
2023-03-03T16:43:38.914Z,37.40
2023-03-03T16:46:33.532Z,37.85
2023-03-03T16:49:09.746Z,52.45
2023-03-03T16:51:49.343Z,63.17
2023-03-03T16:54:27.037Z,51.38
2023-03-03T16:57:52.763Z,47.88
2023-03-03T17:00:23.805Z,44.50
2023-03-03T17:03:00.370Z,41.70
2023-03-03T17:05:51.885Z,47.13
2023-03-03T17:08:37.404Z,34.08
2023-03-03T17:11:25.653Z,32.72
2023-03-03T17:14:13.233Z,40.80
2023-03-03T17:16:52.608Z,43.20
2023-03-03T17:19:51.780Z,40.03
2023-03-03T17:22:28.288Z,42.83
2023-03-03T17:25:06.872Z,38.70
2023-03-03T17:27:36.950Z,43.58
2023-03-03T17:32:59.045Z,69.20
2023-03-03T17:35:42.412Z,81.17
2023-03-03T17:38:12.414Z,72.10
2023-03-03T17:43:25.612Z,48.35
2023-03-03T17:45:56.221Z,47.67
2023-03-03T17:49:07.921Z,44.25
2023-03-03T17:52:08.970Z,50.55
2023-03-03T17:55:06.734Z,55.00
2023-03-03T17:57:45.416Z,143.25
2023-03-03T18:00:19.770Z,138.90
2023-03-03T18:03:04.844Z,82.07
2023-03-03T18:05:37.959Z,63.92
2023-03-03T18:08:20.221Z,60.10
2023-03-03T18:11:08.610Z,57.05
2023-03-03T18:13:47.611Z,50.30
2023-03-03T18:16:32.793Z,44.73
2023-03-03T18:19:08.802Z,47.50
2023-03-03T18:21:59.733Z,50.08
2023-03-03T18:24:51.642Z,49.67
2023-03-03T18:27:24.416Z,46.15
2023-03-03T18:30:22.186Z,43.55
2023-03-03T18:32:57.607Z,45.15
2023-03-03T18:35:33.662Z,48.40
2023-03-03T18:38:15.503Z,48.60
2023-03-03T18:40:53.188Z,50.47
2023-03-03T18:43:44.655Z,50.58
2023-03-03T18:46:20.557Z,52.53
2023-03-03T18:49:04.510Z,56.35
2023-03-03T18:51:34.249Z,63.83
2023-03-03T18:54:03.528Z,60.45
2023-03-03T18:56:58.455Z,62.25
2023-03-03T18:59:30.812Z,61.83
2023-03-03T19:02:13.200Z,59.60
2023-03-03T19:04:49.022Z,60.15
2023-03-03T19:07:26.868Z,50.65
2023-03-03T19:10:02.517Z,51.20
2023-03-03T19:12:54.681Z,52.55
2023-03-03T19:15:30.941Z,62.47
2023-03-03T19:18:05.915Z,55.83
2023-03-03T19:20:41.295Z,46.13
2023-03-03T19:23:20.742Z,50.88
2023-03-03T19:26:20.183Z,52.50
2023-03-03T19:29:12.593Z,49.83
2023-03-03T19:31:51.521Z,53.60
2023-03-03T19:34:33.730Z,56.25
2023-03-03T19:37:23.135Z,48.08
2023-03-03T19:39:57.172Z,50.88
2023-03-03T19:43:00.936Z,48.00
2023-03-03T19:45:53.579Z,55.63
2023-03-03T19:48:23.732Z,52.50
2023-03-03T19:51:20.943Z,54.17
2023-03-03T19:53:47.499Z,57.05
2023-03-03T19:56:23.725Z,50.58
2023-03-03T19:59:19.096Z,51.22
2023-03-03T20:02:07.425Z,52.60
2023-03-03T20:04:53.189Z,53.05
2023-03-03T20:07:22.838Z,55.20
2023-03-03T20:10:04.701Z,50.53
2023-03-03T20:12:47.957Z,47.03
2023-03-03T20:15:24.090Z,49.47
2023-03-03T20:18:00.006Z,51.70
2023-03-03T20:20:40.070Z,50.65
2023-03-03T20:23:07.308Z,46.63
2023-03-03T20:25:42.292Z,48.78
2023-03-03T20:28:48.292Z,53.08
2023-03-03T20:31:40.103Z,48.30
2023-03-03T20:34:21.980Z,49.45
2023-03-03T20:37:03.629Z,52.03
2023-03-03T20:40:07.900Z,52.47
2023-03-03T20:42:59.657Z,49.30
2023-03-03T20:45:29.528Z,46.05
2023-03-03T20:48:14.750Z,52.45
2023-03-03T20:50:44.662Z,45.13
2023-03-03T20:53:49.825Z,39.78
2023-03-03T20:56:21.028Z,44.60
2023-03-03T20:58:57.473Z,43.83
2023-03-03T21:01:47.749Z,47.63
2023-03-03T21:04:31.375Z,45.33
2023-03-03T21:07:01.236Z,44.85
2023-03-03T21:09:32.887Z,48.45
2023-03-03T21:12:01.997Z,43.40
2023-03-03T21:14:31.345Z,42.73
2023-03-03T21:17:02.866Z,45.30
2023-03-03T21:19:32.660Z,49.15
2023-03-03T21:22:02.361Z,47.10
2023-03-03T21:24:47.848Z,53.88
2023-03-03T21:27:28.532Z,47.47
